KSQI/SQI METAR and TAF weather

Enter ICAO airport designator
Station Type Date Time Source
KSQI METAR 2020/07/08 00:22 UTC NOAA

KSQI 080022Z 00000KT 10SM VCTS CLR 26/24 A2993 RMK AO2 LTG DSNT N AND NW TSB16


Station Type Date Time Source
KSQI Decoded METAR 2020/07/08 00:22 UTC NOAA

Sterling Rockfalls, IL, United States (KSQI) 41-45N 089-40W
Jul 07, 2020 - 08:22 PM EDT / 2020.07.08 0022 UTC
Wind: Calm:0
Visibility: 10 mile(s):0
Sky conditions: clear
Weather: thunder in the vicinity; Lightning observed
Temperature: 78 F (26 C)
Dew Point: 75 F (24 C)
Relative Humidity: 88%
Pressure (altimeter): 29.93 in. Hg (1013 hPa)
ob: KSQI 080022Z 00000KT 10SM VCTS CLR 26/24 A2993 RMK AO2 LTG DSNT N AND NW TSB16
cycle: 0

Station Type Date Time Source
KSQI TAF UTC NOAA

Error!

Example: see airport list